Rye, New Hampshire
Current Conditions -  °F | °C
As of 9:58 AM on Monday 22 Dec 2014 (Local Time) from KPSM Reporting Station
Overcast Overcast  
Wind Chill: -1°   Ceiling: 5000
Heat Index:   Visibility: 10mi
Dew Point: -3°   Wind: 6mph
Humidity: 72%   Direction: 30°NNE
Pressure: 30.4"   Gusts: NA
Location:  43.01°N, 70.77°W
Report Text: KPSM 221458Z 03005KT 10SM OVC050 01/M03 A3040 RMK AO2A SLP299 T00141032 53005
Loading
Personal Weather Stations






























Interactive Weather Map New forecast layout! Learn more

10-Day Weather Forecast

Advertisements
Track Severe Weather on mobile